Dai2kousei — JD2542 — position and weather

sailwx.info

Track history (hours):
 
Tides and Currents Weather Stations Pressure Air Temp Water Temp Dewpoint Dewpoint Depression Visibility Wind Speed Wind Dir Waves Ship Positions

Dai2kousei

Last reported at 2015-Jul-07 17:33 UTC. Time now 2015-Jul-07 17:39 UTC.
Position N 35°22' E 139°53'.

Length 77 m; draft 4.7 m.

MMSI: 431000467.

Date/timePositionNaut miles runAvg speedWind from/ knotsBaromVisibWave heightAir tempDewpointWater temp
2015-Jul-07 17:33N 35°22' E 139°53'0 0.0
2015-Jul-07 16:33N 35°22' E 139°54'0 0.0
2015-Jul-07 15:33N 35°22' E 139°54'0 0.0
2015-Jul-07 14:33N 35°22' E 139°54'0 0.0
2015-Jul-07 13:33N 35°22' E 139°54'0 0.0
2015-Jul-07 12:33N 35°22' E 139°54'0 0.0
2015-Jul-07 11:33N 35°22' E 139°54'0 0.0
2015-Jul-07 10:33N 35°22' E 139°54'0 0.0
2015-Jul-07 09:33N 35°22' E 139°54'0 0.0
2015-Jul-07 08:33N 35°22' E 139°54'0 0.0
2015-Jul-07 07:33N 35°22' E 139°54'0 0.0
2015-Jul-07 06:33N 35°22' E 139°54'0 0.0
2015-Jul-07 05:33N 35°22' E 139°54'2 1.5
2015-Jul-07 04:33N 35°22' E 139°52'1 1.5
2015-Jul-07 03:33N 35°23' E 139°51'0 0.0
2015-Jul-07 02:33N 35°23' E 139°51'0 0.0
2015-Jul-07 01:33N 35°23' E 139°51'0 0.1
2015-Jul-07 00:33N 35°23' E 139°51'0 0.0
2015-Jul-06 23:33N 35°23' E 139°51'0 0.0
2015-Jul-06 22:33N 35°23' E 139°51'0 0.0
2015-Jul-06 21:33N 35°23' E 139°51'0 0.0
2015-Jul-06 20:33N 35°23' E 139°51'0 0.1
2015-Jul-06 19:33N 35°23' E 139°50'0 0.0
2015-Jul-06 18:33N 35°23' E 139°50'0 0.0
2015-Jul-06 17:33N 35°23' E 139°50'2 2.3
2015-Jul-06 16:34N 35°22' E 139°53'0 0.0
2015-Jul-06 15:33N 35°22' E 139°53'0 0.0
2015-Jul-06 14:33N 35°22' E 139°53'0 0.0
2015-Jul-06 13:33N 35°22' E 139°53'0 0.0
2015-Jul-06 12:33N 35°22' E 139°53'0 0.0
2015-Jul-06 11:33N 35°22' E 139°53'0 0.0
2015-Jul-06 10:33N 35°22' E 139°53'0 0.0
2015-Jul-06 09:33N 35°22' E 139°53'0 0.0
2015-Jul-06 08:33N 35°22' E 139°53'2 2.5
2015-Jul-06 07:33N 35°24' E 139°50'0 0.0
2015-Jul-06 06:33N 35°24' E 139°50'0 0.0
2015-Jul-06 05:33N 35°24' E 139°50'0 0.0
2015-Jul-06 04:33N 35°24' E 139°50'0 0.0
2015-Jul-06 03:33N 35°24' E 139°50'0 0.0
2015-Jul-06 02:33N 35°24' E 139°50'0 0.0
2015-Jul-06 01:33N 35°24' E 139°50'0 0.0
2015-Jul-06 00:33N 35°24' E 139°50'0 0.0
2015-Jul-05 23:33N 35°24' E 139°50'0 0.0
2015-Jul-05 22:33N 35°24' E 139°50'0 0.0
2015-Jul-05 21:33N 35°24' E 139°50'0 0.0
2015-Jul-05 20:33N 35°24' E 139°50'0 0.0
2015-Jul-05 19:33N 35°24' E 139°50'0 0.0
2015-Jul-05 18:33N 35°24' E 139°50'0 0.0
2015-Jul-05 17:33N 35°24' E 139°50'0 0.0
2015-Jul-05 16:33N 35°24' E 139°50'0 0.0
2015-Jul-05 15:33N 35°24' E 139°50'0 0.0
2015-Jul-05 14:33N 35°24' E 139°50'3 2.8
2015-Jul-05 13:33N 35°23' E 139°47'9 8.6
2015-Jul-05 12:33N 35°15' E 139°47'1010.1
2015-Jul-05 11:33N 35°05' E 139°42'  
2015-Jul-02 21:32N 34°07' E 134°45'  
2015-Jun-29 08:32N 34°07' E 135°01'9 9.0
2015-Jun-29 07:33N 34°15' E 135°07'0 0.1
2015-Jun-29 06:33N 34°15' E 135°07'0 0.0
2015-Jun-29 05:34N 34°15' E 135°07'0 0.0
2015-Jun-29 04:33N 34°15' E 135°07'0 0.0
2015-Jun-29 03:33N 34°15' E 135°07'0 0.0
2015-Jun-29 02:33N 34°15' E 135°07'0 0.0
2015-Jun-29 01:34N 34°15' E 135°07'0 0.0
2015-Jun-29 00:34N 34°15' E 135°07'0 0.0
2015-Jun-28 23:34N 34°15' E 135°07'0 0.0
2015-Jun-28 22:34N 34°15' E 135°07'0 0.0
2015-Jun-28 21:34N 34°15' E 135°07'0 0.3
2015-Jun-28 20:34N 34°15' E 135°07'0 0.0
2015-Jun-28 19:34N 34°15' E 135°07'0 0.0
2015-Jun-28 18:34N 34°15' E 135°07'0 0.0
2015-Jun-28 17:34N 34°15' E 135°07'0 0.0
2015-Jun-28 16:33N 34°15' E 135°07'0 0.0
2015-Jun-28 15:33N 34°15' E 135°07'0 0.0
2015-Jun-28 14:34N 34°15' E 135°07'0 0.0
2015-Jun-28 13:34N 34°15' E 135°07'0 0.0
2015-Jun-28 12:33N 34°15' E 135°07'0 0.0
2015-Jun-28 11:33N 34°15' E 135°07'0 0.0
2015-Jun-28 10:34N 34°15' E 135°07'0 0.0
2015-Jun-28 09:34N 34°15' E 135°07'0 0.0
2015-Jun-28 08:33N 34°15' E 135°07'0 0.0
2015-Jun-28 07:34N 34°15' E 135°07'0 0.0
2015-Jun-28 06:33N 34°15' E 135°07'1 0.8
2015-Jun-28 05:33N 34°15' E 135°06'0 0.1
2015-Jun-28 04:33N 34°15' E 135°06'0 0.0
2015-Jun-28 03:34N 34°15' E 135°06'0 0.0
2015-Jun-28 02:33N 34°15' E 135°06'0 0.0
2015-Jun-28 01:34N 34°15' E 135°06'0 0.0
2015-Jun-28 00:33N 34°15' E 135°06'0 0.0
2015-Jun-27 23:33N 34°15' E 135°06'0 0.0
2015-Jun-27 22:34N 34°15' E 135°06'0 0.0
2015-Jun-27 21:33N 34°15' E 135°06'0 0.0
2015-Jun-27 20:34N 34°15' E 135°06'0 0.0
2015-Jun-27 19:33N 34°15' E 135°06'0 0.1
2015-Jun-27 18:34N 34°15' E 135°06'0 0.0
2015-Jun-27 17:34N 34°15' E 135°06'  
Track history (hours):
 
Tides and Currents Weather Stations Pressure Air Temp Water Temp Dewpoint Dewpoint Depression Visibility Wind Speed Wind Dir Waves Ship Positions

Dai2kousei

Last reported at 2015-Jul-07 17:33 UTC. Time now 2015-Jul-07 17:39 UTC.
Position N 35°22' E 139°53'.

Length 77 m; draft 4.7 m.

MMSI: 431000467.

Date/timePositionNaut miles runAvg speedWind from/ knotsBaromVisibWave heightAir tempDewpointWater temp
2015-Jul-07 17:33N 35°22' E 139°53'0 0.0
2015-Jul-07 16:33N 35°22' E 139°54'0 0.0
2015-Jul-07 15:33N 35°22' E 139°54'0 0.0
2015-Jul-07 14:33N 35°22' E 139°54'0 0.0
2015-Jul-07 13:33N 35°22' E 139°54'0 0.0
2015-Jul-07 12:33N 35°22' E 139°54'0 0.0
2015-Jul-07 11:33N 35°22' E 139°54'0 0.0
2015-Jul-07 10:33N 35°22' E 139°54'0 0.0
2015-Jul-07 09:33N 35°22' E 139°54'0 0.0
2015-Jul-07 08:33N 35°22' E 139°54'0 0.0
2015-Jul-07 07:33N 35°22' E 139°54'0 0.0
2015-Jul-07 06:33N 35°22' E 139°54'0 0.0
2015-Jul-07 05:33N 35°22' E 139°54'2 1.5
2015-Jul-07 04:33N 35°22' E 139°52'1 1.5
2015-Jul-07 03:33N 35°23' E 139°51'0 0.0
2015-Jul-07 02:33N 35°23' E 139°51'0 0.0
2015-Jul-07 01:33N 35°23' E 139°51'0 0.1
2015-Jul-07 00:33N 35°23' E 139°51'0 0.0
2015-Jul-06 23:33N 35°23' E 139°51'0 0.0
2015-Jul-06 22:33N 35°23' E 139°51'0 0.0
2015-Jul-06 21:33N 35°23' E 139°51'0 0.0
2015-Jul-06 20:33N 35°23' E 139°51'0 0.1
2015-Jul-06 19:33N 35°23' E 139°50'0 0.0
2015-Jul-06 18:33N 35°23' E 139°50'0 0.0
2015-Jul-06 17:33N 35°23' E 139°50'2 2.3
2015-Jul-06 16:34N 35°22' E 139°53'0 0.0
2015-Jul-06 15:33N 35°22' E 139°53'0 0.0
2015-Jul-06 14:33N 35°22' E 139°53'0 0.0
2015-Jul-06 13:33N 35°22' E 139°53'0 0.0
2015-Jul-06 12:33N 35°22' E 139°53'0 0.0
2015-Jul-06 11:33N 35°22' E 139°53'0 0.0
2015-Jul-06 10:33N 35°22' E 139°53'0 0.0
2015-Jul-06 09:33N 35°22' E 139°53'0 0.0
2015-Jul-06 08:33N 35°22' E 139°53'2 2.5
2015-Jul-06 07:33N 35°24' E 139°50'0 0.0
2015-Jul-06 06:33N 35°24' E 139°50'0 0.0
2015-Jul-06 05:33N 35°24' E 139°50'0 0.0
2015-Jul-06 04:33N 35°24' E 139°50'0 0.0
2015-Jul-06 03:33N 35°24' E 139°50'0 0.0
2015-Jul-06 02:33N 35°24' E 139°50'0 0.0
2015-Jul-06 01:33N 35°24' E 139°50'0 0.0
2015-Jul-06 00:33N 35°24' E 139°50'0 0.0
2015-Jul-05 23:33N 35°24' E 139°50'0 0.0
2015-Jul-05 22:33N 35°24' E 139°50'0 0.0
2015-Jul-05 21:33N 35°24' E 139°50'0 0.0
2015-Jul-05 20:33N 35°24' E 139°50'0 0.0
2015-Jul-05 19:33N 35°24' E 139°50'0 0.0
2015-Jul-05 18:33N 35°24' E 139°50'0 0.0
2015-Jul-05 17:33N 35°24' E 139°50'0 0.0
2015-Jul-05 16:33N 35°24' E 139°50'0 0.0
2015-Jul-05 15:33N 35°24' E 139°50'0 0.0
2015-Jul-05 14:33N 35°24' E 139°50'3 2.8
2015-Jul-05 13:33N 35°23' E 139°47'9 8.6
2015-Jul-05 12:33N 35°15' E 139°47'1010.1
2015-Jul-05 11:33N 35°05' E 139°42'  
2015-Jul-02 21:32N 34°07' E 134°45'  
2015-Jun-29 08:32N 34°07' E 135°01'9 9.0
2015-Jun-29 07:33N 34°15' E 135°07'0 0.1
2015-Jun-29 06:33N 34°15' E 135°07'0 0.0
2015-Jun-29 05:34N 34°15' E 135°07'0 0.0
2015-Jun-29 04:33N 34°15' E 135°07'0 0.0
2015-Jun-29 03:33N 34°15' E 135°07'0 0.0
2015-Jun-29 02:33N 34°15' E 135°07'0 0.0
2015-Jun-29 01:34N 34°15' E 135°07'0 0.0
2015-Jun-29 00:34N 34°15' E 135°07'0 0.0
2015-Jun-28 23:34N 34°15' E 135°07'0 0.0
2015-Jun-28 22:34N 34°15' E 135°07'0 0.0
2015-Jun-28 21:34N 34°15' E 135°07'0 0.3
2015-Jun-28 20:34N 34°15' E 135°07'0 0.0
2015-Jun-28 19:34N 34°15' E 135°07'0 0.0
2015-Jun-28 18:34N 34°15' E 135°07'0 0.0
2015-Jun-28 17:34N 34°15' E 135°07'0 0.0
2015-Jun-28 16:33N 34°15' E 135°07'0 0.0
2015-Jun-28 15:33N 34°15' E 135°07'0 0.0
2015-Jun-28 14:34N 34°15' E 135°07'0 0.0
2015-Jun-28 13:34N 34°15' E 135°07'0 0.0
2015-Jun-28 12:33N 34°15' E 135°07'0 0.0
2015-Jun-28 11:33N 34°15' E 135°07'0 0.0
2015-Jun-28 10:34N 34°15' E 135°07'0 0.0
2015-Jun-28 09:34N 34°15' E 135°07'0 0.0
2015-Jun-28 08:33N 34°15' E 135°07'0 0.0
2015-Jun-28 07:34N 34°15' E 135°07'0 0.0
2015-Jun-28 06:33N 34°15' E 135°07'1 0.8
2015-Jun-28 05:33N 34°15' E 135°06'0 0.1
2015-Jun-28 04:33N 34°15' E 135°06'0 0.0
2015-Jun-28 03:34N 34°15' E 135°06'0 0.0
2015-Jun-28 02:33N 34°15' E 135°06'0 0.0
2015-Jun-28 01:34N 34°15' E 135°06'0 0.0
2015-Jun-28 00:33N 34°15' E 135°06'0 0.0
2015-Jun-27 23:33N 34°15' E 135°06'0 0.0
2015-Jun-27 22:34N 34°15' E 135°06'0 0.0
2015-Jun-27 21:33N 34°15' E 135°06'0 0.0
2015-Jun-27 20:34N 34°15' E 135°06'0 0.0
2015-Jun-27 19:33N 34°15' E 135°06'0 0.1
2015-Jun-27 18:34N 34°15' E 135°06'0 0.0
2015-Jun-27 17:34N 34°15' E 135°06'  

Dump ship's entire track history